sensor_id;sensor_type;location;lat;lon;timestamp;temperature;humidity
15355;DHT22;7777;52.254;9.618;2022-07-23T00:02:07;16.50;99.70
15355;DHT22;7777;52.254;9.618;2022-07-23T00:04:33;16.40;99.80
15355;DHT22;7777;52.254;9.618;2022-07-23T00:06:59;16.40;99.90
15355;DHT22;7777;52.254;9.618;2022-07-23T00:09:25;16.30;99.90
15355;DHT22;7777;52.254;9.618;2022-07-23T00:11:51;16.30;99.90
15355;DHT22;7777;52.254;9.618;2022-07-23T00:14:17;16.30;99.70
15355;DHT22;7777;52.254;9.618;2022-07-23T00:16:43;16.30;99.90
15355;DHT22;7777;52.254;9.618;2022-07-23T00:19:08;16.30;99.90
15355;DHT22;7777;52.254;9.618;2022-07-23T00:21:34;16.30;99.80
15355;DHT22;7777;52.254;9.618;2022-07-23T00:24:00;16.20;99.90
15355;DHT22;7777;52.254;9.618;2022-07-23T00:26:25;16.20;99.40
15355;DHT22;7777;52.254;9.618;2022-07-23T00:28:51;16.30;99.50
15355;DHT22;7777;52.254;9.618;2022-07-23T00:31:18;16.30;99.40
15355;DHT22;7777;52.254;9.618;2022-07-23T00:33:44;16.20;99.70
15355;DHT22;7777;52.254;9.618;2022-07-23T00:36:10;16.20;99.80
15355;DHT22;7777;52.254;9.618;2022-07-23T00:38:35;16.20;99.90
15355;DHT22;7777;52.254;9.618;2022-07-23T00:41:01;16.10;99.90
15355;DHT22;7777;52.254;9.618;2022-07-23T00:43:27;16.10;99.90
15355;DHT22;7777;52.254;9.618;2022-07-23T00:45:52;16.00;99.90
15355;DHT22;7777;52.254;9.618;2022-07-23T00:48:18;16.00;99.70
15355;DHT22;7777;52.254;9.618;2022-07-23T00:50:44;16.00;99.60
15355;DHT22;7777;52.254;9.618;2022-07-23T00:53:10;16.00;99.70
15355;DHT22;7777;52.254;9.618;2022-07-23T00:55:37;15.90;99.90
15355;DHT22;7777;52.254;9.618;2022-07-23T00:58:07;15.90;99.70
15355;DHT22;7777;52.254;9.618;2022-07-23T01:00:34;15.90;99.40
15355;DHT22;7777;52.254;9.618;2022-07-23T01:02:59;15.80;99.60
15355;DHT22;7777;52.254;9.618;2022-07-23T01:05:25;15.80;99.70
15355;DHT22;7777;52.254;9.618;2022-07-23T01:07:51;15.70;99.80
15355;DHT22;7777;52.254;9.618;2022-07-23T01:10:18;15.70;99.80
15355;DHT22;7777;52.254;9.618;2022-07-23T01:13:09;15.70;99.90
15355;DHT22;7777;52.254;9.618;2022-07-23T01:15:37;15.60;99.70
15355;DHT22;7777;52.254;9.618;2022-07-23T01:18:04;15.60;99.90
15355;DHT22;7777;52.254;9.618;2022-07-23T01:20:31;15.60;99.90
15355;DHT22;7777;52.254;9.618;2022-07-23T01:22:58;15.50;99.80
15355;DHT22;7777;52.254;9.618;2022-07-23T01:25:24;15.50;99.90
15355;DHT22;7777;52.254;9.618;2022-07-23T01:27:52;15.40;99.90
15355;DHT22;7777;52.254;9.618;2022-07-23T01:30:19;15.40;99.90
15355;DHT22;7777;52.254;9.618;2022-07-23T01:32:45;15.40;99.80
15355;DHT22;7777;52.254;9.618;2022-07-23T01:35:11;15.40;99.80
15355;DHT22;7777;52.254;9.618;2022-07-23T01:37:37;15.30;99.60
15355;DHT22;7777;52.254;9.618;2022-07-23T01:40:05;15.30;99.60
15355;DHT22;7777;52.254;9.618;2022-07-23T01:42:31;15.30;99.50
15355;DHT22;7777;52.254;9.618;2022-07-23T01:44:57;15.30;99.50
15355;DHT22;7777;52.254;9.618;2022-07-23T01:47:22;15.30;99.60
15355;DHT22;7777;52.254;9.618;2022-07-23T01:49:48;15.20;99.80
15355;DHT22;7777;52.254;9.618;2022-07-23T01:52:14;15.10;99.80
15355;DHT22;7777;52.254;9.618;2022-07-23T01:54:40;15.10;99.80
15355;DHT22;7777;52.254;9.618;2022-07-23T01:57:07;15.00;99.90
15355;DHT22;7777;52.254;9.618;2022-07-23T01:59:33;15.00;99.80
15355;DHT22;7777;52.254;9.618;2022-07-23T02:01:59;15.00;99.70
15355;DHT22;7777;52.254;9.618;2022-07-23T02:04:25;15.00;99.60
15355;DHT22;7777;52.254;9.618;2022-07-23T02:06:52;15.00;99.80
15355;DHT22;7777;52.254;9.618;2022-07-23T02:09:18;15.00;99.90
15355;DHT22;7777;52.254;9.618;2022-07-23T02:11:44;15.00;99.90
15355;DHT22;7777;52.254;9.618;2022-07-23T02:14:10;14.90;99.90
15355;DHT22;7777;52.254;9.618;2022-07-23T02:16:36;14.90;99.90
15355;DHT22;7777;52.254;9.618;2022-07-23T02:19:03;14.90;99.90
15355;DHT22;7777;52.254;9.618;2022-07-23T02:21:29;14.90;99.90
15355;DHT22;7777;52.254;9.618;2022-07-23T02:23:54;14.90;99.90
15355;DHT22;7777;52.254;9.618;2022-07-23T02:26:20;14.90;99.90
15355;DHT22;7777;52.254;9.618;2022-07-23T02:28:46;14.90;99.90
15355;DHT22;7777;52.254;9.618;2022-07-23T02:31:12;14.90;99.60
15355;DHT22;7777;52.254;9.618;2022-07-23T02:33:38;15.00;99.90
15355;DHT22;7777;52.254;9.618;2022-07-23T02:36:04;15.00;99.90
15355;DHT22;7777;52.254;9.618;2022-07-23T02:38:30;15.00;99.90
15355;DHT22;7777;52.254;9.618;2022-07-23T02:40:56;15.00;99.90
15355;DHT22;7777;52.254;9.618;2022-07-23T02:43:21;15.00;99.90
15355;DHT22;7777;52.254;9.618;2022-07-23T02:45:47;15.00;99.90
15355;DHT22;7777;52.254;9.618;2022-07-23T02:48:13;15.10;99.90
15355;DHT22;7777;52.254;9.618;2022-07-23T02:50:39;15.10;99.90
15355;DHT22;7777;52.254;9.618;2022-07-23T02:53:05;15.10;99.90
15355;DHT22;7777;52.254;9.618;2022-07-23T02:55:33;15.10;99.90
15355;DHT22;7777;52.254;9.618;2022-07-23T02:57:59;15.20;99.90
15355;DHT22;7777;52.254;9.618;2022-07-23T03:00:25;15.20;99.90
15355;DHT22;7777;52.254;9.618;2022-07-23T03:02:50;15.20;99.90
15355;DHT22;7777;52.254;9.618;2022-07-23T03:05:16;15.30;99.90
15355;DHT22;7777;52.254;9.618;2022-07-23T03:07:42;15.30;99.90
15355;DHT22;7777;52.254;9.618;2022-07-23T03:10:08;15.40;99.90
15355;DHT22;7777;52.254;9.618;2022-07-23T03:12:34;15.40;99.90
15355;DHT22;7777;52.254;9.618;2022-07-23T03:15:00;15.30;99.90
15355;DHT22;7777;52.254;9.618;2022-07-23T03:17:25;15.40;99.90
15355;DHT22;7777;52.254;9.618;2022-07-23T03:19:51;15.40;99.90
15355;DHT22;7777;52.254;9.618;2022-07-23T03:22:17;15.30;99.90
15355;DHT22;7777;52.254;9.618;2022-07-23T03:24:42;15.40;99.90
15355;DHT22;7777;52.254;9.618;2022-07-23T03:27:25;15.50;99.90
15355;DHT22;7777;52.254;9.618;2022-07-23T03:29:53;15.50;99.90
15355;DHT22;7777;52.254;9.618;2022-07-23T03:32:20;15.50;99.90
15355;DHT22;7777;52.254;9.618;2022-07-23T03:34:47;15.50;99.90
15355;DHT22;7777;52.254;9.618;2022-07-23T03:37:13;15.50;99.90
15355;DHT22;7777;52.254;9.618;2022-07-23T03:39:39;15.60;99.90
15355;DHT22;7777;52.254;9.618;2022-07-23T03:42:06;15.60;99.90
15355;DHT22;7777;52.254;9.618;2022-07-23T03:44:32;15.60;99.90
15355;DHT22;7777;52.254;9.618;2022-07-23T03:46:57;15.60;99.90
15355;DHT22;7777;52.254;9.618;2022-07-23T03:49:23;15.60;99.90
15355;DHT22;7777;52.254;9.618;2022-07-23T03:51:49;15.70;99.90
15355;DHT22;7777;52.254;9.618;2022-07-23T03:54:15;15.70;99.90
15355;DHT22;7777;52.254;9.618;2022-07-23T03:56:41;15.70;99.90
15355;DHT22;7777;52.254;9.618;2022-07-23T03:59:08;15.70;99.90
15355;DHT22;7777;52.254;9.618;2022-07-23T04:01:34;15.70;99.90
15355;DHT22;7777;52.254;9.618;2022-07-23T04:04:01;15.70;99.90
15355;DHT22;7777;52.254;9.618;2022-07-23T04:06:27;15.80;99.90
15355;DHT22;7777;52.254;9.618;2022-07-23T04:08:53;15.80;99.90
15355;DHT22;7777;52.254;9.618;2022-07-23T04:11:19;15.80;99.90
15355;DHT22;7777;52.254;9.618;2022-07-23T04:13:44;15.80;99.90
15355;DHT22;7777;52.254;9.618;2022-07-23T04:16:10;15.80;99.90
15355;DHT22;7777;52.254;9.618;2022-07-23T04:18:36;15.80;99.90
15355;DHT22;7777;52.254;9.618;2022-07-23T04:21:02;15.80;99.90
15355;DHT22;7777;52.254;9.618;2022-07-23T04:23:27;15.80;99.90
15355;DHT22;7777;52.254;9.618;2022-07-23T04:25:53;15.90;99.90
15355;DHT22;7777;52.254;9.618;2022-07-23T04:28:19;15.90;99.90
15355;DHT22;7777;52.254;9.618;2022-07-23T04:30:45;15.90;99.90
15355;DHT22;7777;52.254;9.618;2022-07-23T04:33:10;15.90;99.90
15355;DHT22;7777;52.254;9.618;2022-07-23T04:35:36;15.90;99.90
15355;DHT22;7777;52.254;9.618;2022-07-23T04:38:03;15.90;99.90
15355;DHT22;7777;52.254;9.618;2022-07-23T04:40:29;15.90;99.90
15355;DHT22;7777;52.254;9.618;2022-07-23T04:42:56;15.90;99.90
15355;DHT22;7777;52.254;9.618;2022-07-23T04:45:23;15.80;99.90
15355;DHT22;7777;52.254;9.618;2022-07-23T04:47:50;15.80;99.90
15355;DHT22;7777;52.254;9.618;2022-07-23T04:50:16;15.80;99.90
15355;DHT22;7777;52.254;9.618;2022-07-23T04:52:47;15.80;99.90
15355;DHT22;7777;52.254;9.618;2022-07-23T04:55:14;15.80;99.90
15355;DHT22;7777;52.254;9.618;2022-07-23T04:57:40;15.80;99.90
15355;DHT22;7777;52.254;9.618;2022-07-23T05:00:07;15.70;99.90
15355;DHT22;7777;52.254;9.618;2022-07-23T05:02:33;15.80;99.90
15355;DHT22;7777;52.254;9.618;2022-07-23T05:04:59;15.80;99.90
15355;DHT22;7777;52.254;9.618;2022-07-23T05:07:24;15.80;99.90
15355;DHT22;7777;52.254;9.618;2022-07-23T05:09:50;15.80;99.90
15355;DHT22;7777;52.254;9.618;2022-07-23T05:12:16;15.70;99.90
15355;DHT22;7777;52.254;9.618;2022-07-23T05:14:42;15.70;99.90
15355;DHT22;7777;52.254;9.618;2022-07-23T05:17:08;15.80;99.90
15355;DHT22;7777;52.254;9.618;2022-07-23T05:19:34;15.80;99.90
15355;DHT22;7777;52.254;9.618;2022-07-23T05:22:00;15.80;99.90
15355;DHT22;7777;52.254;9.618;2022-07-23T05:24:26;15.80;99.90
15355;DHT22;7777;52.254;9.618;2022-07-23T05:26:52;15.80;99.90
15355;DHT22;7777;52.254;9.618;2022-07-23T05:29:18;15.80;99.90
15355;DHT22;7777;52.254;9.618;2022-07-23T05:31:44;15.90;99.90
15355;DHT22;7777;52.254;9.618;2022-07-23T05:34:10;15.90;99.90
15355;DHT22;7777;52.254;9.618;2022-07-23T05:36:35;16.00;99.90
15355;DHT22;7777;52.254;9.618;2022-07-23T05:39:02;16.00;99.90
15355;DHT22;7777;52.254;9.618;2022-07-23T05:41:28;16.10;99.90
15355;DHT22;7777;52.254;9.618;2022-07-23T05:43:53;16.10;99.90
15355;DHT22;7777;52.254;9.618;2022-07-23T05:46:19;16.20;99.90
15355;DHT22;7777;52.254;9.618;2022-07-23T05:48:48;16.20;99.90
15355;DHT22;7777;52.254;9.618;2022-07-23T05:51:24;16.30;99.90
15355;DHT22;7777;52.254;9.618;2022-07-23T05:53:51;16.30;99.90
15355;DHT22;7777;52.254;9.618;2022-07-23T05:56:18;16.40;99.90
15355;DHT22;7777;52.254;9.618;2022-07-23T05:58:44;16.40;99.90
15355;DHT22;7777;52.254;9.618;2022-07-23T06:01:10;16.40;99.90
15355;DHT22;7777;52.254;9.618;2022-07-23T06:03:38;16.50;99.90
15355;DHT22;7777;52.254;9.618;2022-07-23T06:06:04;16.50;99.90
15355;DHT22;7777;52.254;9.618;2022-07-23T06:08:30;16.60;99.90
15355;DHT22;7777;52.254;9.618;2022-07-23T06:10:56;16.60;99.90
15355;DHT22;7777;52.254;9.618;2022-07-23T06:13:22;16.60;99.90
15355;DHT22;7777;52.254;9.618;2022-07-23T06:15:48;16.70;99.90
15355;DHT22;7777;52.254;9.618;2022-07-23T06:18:14;16.70;99.90
15355;DHT22;7777;52.254;9.618;2022-07-23T06:20:40;16.80;99.90
15355;DHT22;7777;52.254;9.618;2022-07-23T06:23:06;16.80;99.90
15355;DHT22;7777;52.254;9.618;2022-07-23T06:25:32;16.90;99.90
15355;DHT22;7777;52.254;9.618;2022-07-23T06:27:57;16.90;99.90
15355;DHT22;7777;52.254;9.618;2022-07-23T06:30:23;17.00;99.90
15355;DHT22;7777;52.254;9.618;2022-07-23T06:32:49;17.10;99.90
15355;DHT22;7777;52.254;9.618;2022-07-23T06:35:15;17.10;99.90
15355;DHT22;7777;52.254;9.618;2022-07-23T06:37:41;17.20;99.90
15355;DHT22;7777;52.254;9.618;2022-07-23T06:40:08;17.20;99.90
15355;DHT22;7777;52.254;9.618;2022-07-23T06:42:34;17.20;99.90
15355;DHT22;7777;52.254;9.618;2022-07-23T06:45:03;17.20;99.90
15355;DHT22;7777;52.254;9.618;2022-07-23T06:47:29;17.30;99.90
15355;DHT22;7777;52.254;9.618;2022-07-23T06:49:55;17.40;99.90
15355;DHT22;7777;52.254;9.618;2022-07-23T06:52:21;17.40;99.90
15355;DHT22;7777;52.254;9.618;2022-07-23T06:54:46;17.50;99.90
15355;DHT22;7777;52.254;9.618;2022-07-23T06:57:12;17.50;99.90
15355;DHT22;7777;52.254;9.618;2022-07-23T06:59:38;17.60;99.90
15355;DHT22;7777;52.254;9.618;2022-07-23T07:02:06;17.60;99.90
15355;DHT22;7777;52.254;9.618;2022-07-23T07:04:35;17.70;99.90
15355;DHT22;7777;52.254;9.618;2022-07-23T07:07:02;17.70;99.90
15355;DHT22;7777;52.254;9.618;2022-07-23T07:09:28;17.80;99.90
15355;DHT22;7777;52.254;9.618;2022-07-23T07:11:54;17.80;99.90
15355;DHT22;7777;52.254;9.618;2022-07-23T07:14:20;17.90;99.90
15355;DHT22;7777;52.254;9.618;2022-07-23T07:16:45;18.00;99.90
15355;DHT22;7777;52.254;9.618;2022-07-23T07:19:11;18.00;99.90
15355;DHT22;7777;52.254;9.618;2022-07-23T07:21:37;18.10;99.90
15355;DHT22;7777;52.254;9.618;2022-07-23T07:24:03;18.20;99.90
15355;DHT22;7777;52.254;9.618;2022-07-23T07:26:29;18.30;99.90
15355;DHT22;7777;52.254;9.618;2022-07-23T07:28:56;18.30;99.80
15355;DHT22;7777;52.254;9.618;2022-07-23T07:31:22;18.40;99.80
15355;DHT22;7777;52.254;9.618;2022-07-23T07:33:48;18.40;99.80
15355;DHT22;7777;52.254;9.618;2022-07-23T07:36:14;18.50;99.40
15355;DHT22;7777;52.254;9.618;2022-07-23T07:38:39;18.60;99.20
15355;DHT22;7777;52.254;9.618;2022-07-23T07:41:05;18.70;99.20
15355;DHT22;7777;52.254;9.618;2022-07-23T07:43:31;18.70;99.10
15355;DHT22;7777;52.254;9.618;2022-07-23T07:45:56;18.70;99.10
15355;DHT22;7777;52.254;9.618;2022-07-23T07:48:22;18.90;99.10
15355;DHT22;7777;52.254;9.618;2022-07-23T07:50:48;19.00;99.30
15355;DHT22;7777;52.254;9.618;2022-07-23T07:53:14;19.10;99.40
15355;DHT22;7777;52.254;9.618;2022-07-23T07:55:39;19.10;99.20
15355;DHT22;7777;52.254;9.618;2022-07-23T07:58:05;19.20;98.90
15355;DHT22;7777;52.254;9.618;2022-07-23T08:00:31;19.20;98.90
15355;DHT22;7777;52.254;9.618;2022-07-23T08:02:58;19.30;98.40
15355;DHT22;7777;52.254;9.618;2022-07-23T08:05:26;19.30;98.40
15355;DHT22;7777;52.254;9.618;2022-07-23T08:07:52;19.30;98.60
15355;DHT22;7777;52.254;9.618;2022-07-23T08:10:19;19.30;98.20
15355;DHT22;7777;52.254;9.618;2022-07-23T08:12:52;19.30;98.10
15355;DHT22;7777;52.254;9.618;2022-07-23T08:15:21;19.40;97.80
15355;DHT22;7777;52.254;9.618;2022-07-23T08:17:48;19.50;97.80
15355;DHT22;7777;52.254;9.618;2022-07-23T08:20:17;19.60;97.90
15355;DHT22;7777;52.254;9.618;2022-07-23T08:22:49;19.60;97.60
15355;DHT22;7777;52.254;9.618;2022-07-23T08:25:30;19.60;97.30
15355;DHT22;7777;52.254;9.618;2022-07-23T08:27:58;19.60;97.60
15355;DHT22;7777;52.254;9.618;2022-07-23T08:30:26;19.70;97.50
15355;DHT22;7777;52.254;9.618;2022-07-23T08:32:56;19.80;97.50
15355;DHT22;7777;52.254;9.618;2022-07-23T08:35:34;19.80;97.30
15355;DHT22;7777;52.254;9.618;2022-07-23T08:38:04;19.90;96.90
15355;DHT22;7777;52.254;9.618;2022-07-23T08:40:34;19.90;96.50
15355;DHT22;7777;52.254;9.618;2022-07-23T08:43:04;19.90;96.60
15355;DHT22;7777;52.254;9.618;2022-07-23T08:45:36;19.90;96.80
15355;DHT22;7777;52.254;9.618;2022-07-23T08:48:11;20.00;96.60
15355;DHT22;7777;52.254;9.618;2022-07-23T08:50:38;20.00;95.80
15355;DHT22;7777;52.254;9.618;2022-07-23T08:53:08;20.00;96.20
15355;DHT22;7777;52.254;9.618;2022-07-23T08:55:34;20.20;96.00
15355;DHT22;7777;52.254;9.618;2022-07-23T08:58:01;20.20;96.10
15355;DHT22;7777;52.254;9.618;2022-07-23T09:00:27;20.20;96.00
15355;DHT22;7777;52.254;9.618;2022-07-23T09:02:53;20.20;95.90
15355;DHT22;7777;52.254;9.618;2022-07-23T09:05:20;20.20;96.20
15355;DHT22;7777;52.254;9.618;2022-07-23T09:08:11;20.30;96.20
15355;DHT22;7777;52.254;9.618;2022-07-23T09:10:57;20.30;96.00
15355;DHT22;7777;52.254;9.618;2022-07-23T09:13:50;20.40;95.30
15355;DHT22;7777;52.254;9.618;2022-07-23T09:16:29;20.40;95.10
15355;DHT22;7777;52.254;9.618;2022-07-23T09:19:01;20.40;95.30
15355;DHT22;7777;52.254;9.618;2022-07-23T09:24:07;20.50;95.40
15355;DHT22;7777;52.254;9.618;2022-07-23T09:26:35;20.50;95.40
15355;DHT22;7777;52.254;9.618;2022-07-23T09:31:50;20.60;95.20
15355;DHT22;7777;52.254;9.618;2022-07-23T09:34:35;20.70;95.00
15355;DHT22;7777;52.254;9.618;2022-07-23T09:37:13;20.80;95.30
15355;DHT22;7777;52.254;9.618;2022-07-23T09:39:43;20.90;95.20
15355;DHT22;7777;52.254;9.618;2022-07-23T09:42:18;21.00;94.40
15355;DHT22;7777;52.254;9.618;2022-07-23T09:44:50;21.10;94.10
15355;DHT22;7777;52.254;9.618;2022-07-23T09:47:18;21.00;94.20
15355;DHT22;7777;52.254;9.618;2022-07-23T09:50:07;21.00;93.90
15355;DHT22;7777;52.254;9.618;2022-07-23T09:52:36;21.10;94.30
15355;DHT22;7777;52.254;9.618;2022-07-23T09:55:14;21.10;93.90
15355;DHT22;7777;52.254;9.618;2022-07-23T09:57:41;21.30;94.30
15355;DHT22;7777;52.254;9.618;2022-07-23T10:00:11;21.40;93.70
15355;DHT22;7777;52.254;9.618;2022-07-23T10:02:38;21.50;94.30
15355;DHT22;7777;52.254;9.618;2022-07-23T10:05:05;21.60;94.10
15355;DHT22;7777;52.254;9.618;2022-07-23T10:07:34;21.70;94.00
15355;DHT22;7777;52.254;9.618;2022-07-23T10:10:04;21.80;93.60
15355;DHT22;7777;52.254;9.618;2022-07-23T10:12:31;21.80;93.30
15355;DHT22;7777;52.254;9.618;2022-07-23T10:15:09;21.80;93.70
15355;DHT22;7777;52.254;9.618;2022-07-23T10:17:35;21.90;93.80
15355;DHT22;7777;52.254;9.618;2022-07-23T10:20:01;21.90;93.40
15355;DHT22;7777;52.254;9.618;2022-07-23T10:22:36;22.00;93.00
15355;DHT22;7777;52.254;9.618;2022-07-23T10:25:15;22.10;93.30
15355;DHT22;7777;52.254;9.618;2022-07-23T10:31:05;22.30;92.80
15355;DHT22;7777;52.254;9.618;2022-07-23T10:33:59;22.30;92.10
15355;DHT22;7777;52.254;9.618;2022-07-23T10:36:40;22.50;92.40
15355;DHT22;7777;52.254;9.618;2022-07-23T10:39:27;22.60;91.70
15355;DHT22;7777;52.254;9.618;2022-07-23T10:42:11;22.70;92.50
15355;DHT22;7777;52.254;9.618;2022-07-23T10:44:41;22.80;92.00
15355;DHT22;7777;52.254;9.618;2022-07-23T10:47:11;22.80;92.20
15355;DHT22;7777;52.254;9.618;2022-07-23T10:53:08;22.90;91.90
15355;DHT22;7777;52.254;9.618;2022-07-23T10:58:00;22.90;91.50
15355;DHT22;7777;52.254;9.618;2022-07-23T11:00:29;22.90;91.50
15355;DHT22;7777;52.254;9.618;2022-07-23T11:02:59;22.90;91.70
15355;DHT22;7777;52.254;9.618;2022-07-23T11:05:43;23.00;92.20
15355;DHT22;7777;52.254;9.618;2022-07-23T11:08:15;23.10;91.70
15355;DHT22;7777;52.254;9.618;2022-07-23T11:10:50;23.20;91.80
15355;DHT22;7777;52.254;9.618;2022-07-23T11:13:36;23.30;92.00
15355;DHT22;7777;52.254;9.618;2022-07-23T11:16:22;23.30;91.40
15355;DHT22;7777;52.254;9.618;2022-07-23T11:18:59;23.40;91.60
15355;DHT22;7777;52.254;9.618;2022-07-23T11:32:02;24.00;91.20
15355;DHT22;7777;52.254;9.618;2022-07-23T11:34:43;24.20;90.40
15355;DHT22;7777;52.254;9.618;2022-07-23T11:37:26;24.20;88.60
15355;DHT22;7777;52.254;9.618;2022-07-23T11:40:01;24.20;90.40
15355;DHT22;7777;52.254;9.618;2022-07-23T11:42:34;24.30;90.30
15355;DHT22;7777;52.254;9.618;2022-07-23T11:45:00;24.30;89.20
15355;DHT22;7777;52.254;9.618;2022-07-23T11:47:27;24.30;90.30
15355;DHT22;7777;52.254;9.618;2022-07-23T11:49:59;24.40;89.80
15355;DHT22;7777;52.254;9.618;2022-07-23T11:52:29;24.30;90.00
15355;DHT22;7777;52.254;9.618;2022-07-23T11:54:58;24.40;90.10
15355;DHT22;7777;52.254;9.618;2022-07-23T11:57:33;24.30;90.00
15355;DHT22;7777;52.254;9.618;2022-07-23T12:02:49;24.40;88.30
15355;DHT22;7777;52.254;9.618;2022-07-23T12:05:21;24.40;89.70
15355;DHT22;7777;52.254;9.618;2022-07-23T12:07:53;24.50;89.60
15355;DHT22;7777;52.254;9.618;2022-07-23T12:10:28;24.60;89.40
15355;DHT22;7777;52.254;9.618;2022-07-23T12:13:06;24.70;88.30
15355;DHT22;7777;52.254;9.618;2022-07-23T12:15:46;24.80;87.70
15355;DHT22;7777;52.254;9.618;2022-07-23T12:18:23;24.90;87.00
15355;DHT22;7777;52.254;9.618;2022-07-23T12:20:57;24.90;88.10
15355;DHT22;7777;52.254;9.618;2022-07-23T12:23:28;25.00;88.00
15355;DHT22;7777;52.254;9.618;2022-07-23T12:25:54;25.10;87.10
15355;DHT22;7777;52.254;9.618;2022-07-23T12:28:32;25.20;87.30
15355;DHT22;7777;52.254;9.618;2022-07-23T12:30:58;25.30;87.80
15355;DHT22;7777;52.254;9.618;2022-07-23T12:33:29;25.30;86.50
15355;DHT22;7777;52.254;9.618;2022-07-23T12:36:02;25.40;84.60
15355;DHT22;7777;52.254;9.618;2022-07-23T12:38:41;25.50;85.90
15355;DHT22;7777;52.254;9.618;2022-07-23T12:41:16;25.60;86.40
15355;DHT22;7777;52.254;9.618;2022-07-23T12:43:44;25.70;85.90
15355;DHT22;7777;52.254;9.618;2022-07-23T12:46:19;25.70;84.40
15355;DHT22;7777;52.254;9.618;2022-07-23T12:51:30;25.80;84.30
15355;DHT22;7777;52.254;9.618;2022-07-23T12:54:04;25.70;82.70
15355;DHT22;7777;52.254;9.618;2022-07-23T12:56:33;25.70;83.40
15355;DHT22;7777;52.254;9.618;2022-07-23T13:01:39;25.90;83.60
15355;DHT22;7777;52.254;9.618;2022-07-23T13:04:12;25.90;82.80
15355;DHT22;7777;52.254;9.618;2022-07-23T13:09:25;26.00;83.30
15355;DHT22;7777;52.254;9.618;2022-07-23T13:11:53;26.00;82.40
15355;DHT22;7777;52.254;9.618;2022-07-23T13:14:20;26.00;83.10
15355;DHT22;7777;52.254;9.618;2022-07-23T13:16:51;26.10;82.90
15355;DHT22;7777;52.254;9.618;2022-07-23T13:19:19;26.20;82.40
15355;DHT22;7777;52.254;9.618;2022-07-23T13:21:45;26.20;81.50
15355;DHT22;7777;52.254;9.618;2022-07-23T13:24:11;26.20;81.20
15355;DHT22;7777;52.254;9.618;2022-07-23T13:26:38;26.30;83.00
15355;DHT22;7777;52.254;9.618;2022-07-23T13:29:05;26.30;82.30
15355;DHT22;7777;52.254;9.618;2022-07-23T13:31:31;26.30;82.50
15355;DHT22;7777;52.254;9.618;2022-07-23T13:33:58;26.30;82.50
15355;DHT22;7777;52.254;9.618;2022-07-23T13:36:23;26.30;81.30
15355;DHT22;7777;52.254;9.618;2022-07-23T13:38:49;26.30;81.80
15355;DHT22;7777;52.254;9.618;2022-07-23T13:41:18;26.30;81.70
15355;DHT22;7777;52.254;9.618;2022-07-23T13:43:44;26.20;80.60
15355;DHT22;7777;52.254;9.618;2022-07-23T13:46:10;26.10;78.50
15355;DHT22;7777;52.254;9.618;2022-07-23T13:48:36;26.00;79.10
15355;DHT22;7777;52.254;9.618;2022-07-23T13:51:01;26.00;80.20
15355;DHT22;7777;52.254;9.618;2022-07-23T13:53:27;26.00;81.10
15355;DHT22;7777;52.254;9.618;2022-07-23T13:55:53;25.90;79.20
15355;DHT22;7777;52.254;9.618;2022-07-23T13:58:20;25.80;78.70
15355;DHT22;7777;52.254;9.618;2022-07-23T14:00:49;25.80;79.80
15355;DHT22;7777;52.254;9.618;2022-07-23T14:03:17;25.80;79.80
15355;DHT22;7777;52.254;9.618;2022-07-23T14:05:43;25.80;79.90
15355;DHT22;7777;52.254;9.618;2022-07-23T14:08:09;25.90;82.00
15355;DHT22;7777;52.254;9.618;2022-07-23T14:10:35;25.90;80.10
15355;DHT22;7777;52.254;9.618;2022-07-23T14:13:01;25.90;80.50
15355;DHT22;7777;52.254;9.618;2022-07-23T14:15:29;25.90;81.20
15355;DHT22;7777;52.254;9.618;2022-07-23T14:17:56;25.90;79.30
15355;DHT22;7777;52.254;9.618;2022-07-23T14:20:22;26.00;81.10
15355;DHT22;7777;52.254;9.618;2022-07-23T14:22:48;25.90;79.20
15355;DHT22;7777;52.254;9.618;2022-07-23T14:25:15;26.00;80.70
15355;DHT22;7777;52.254;9.618;2022-07-23T14:27:42;26.00;80.80
15355;DHT22;7777;52.254;9.618;2022-07-23T14:30:10;26.00;80.20
15355;DHT22;7777;52.254;9.618;2022-07-23T14:32:37;26.00;79.30
15355;DHT22;7777;52.254;9.618;2022-07-23T14:35:03;26.00;80.90
15355;DHT22;7777;52.254;9.618;2022-07-23T14:37:30;26.00;78.40
15355;DHT22;7777;52.254;9.618;2022-07-23T14:39:56;26.00;80.10
15355;DHT22;7777;52.254;9.618;2022-07-23T14:42:21;26.10;80.60
15355;DHT22;7777;52.254;9.618;2022-07-23T14:44:47;26.00;79.40
15355;DHT22;7777;52.254;9.618;2022-07-23T14:47:13;26.00;79.00
15355;DHT22;7777;52.254;9.618;2022-07-23T14:49:39;26.00;78.70
15355;DHT22;7777;52.254;9.618;2022-07-23T14:52:06;26.00;79.00
15355;DHT22;7777;52.254;9.618;2022-07-23T14:54:32;26.00;77.90
15355;DHT22;7777;52.254;9.618;2022-07-23T14:56:59;26.00;78.50
15355;DHT22;7777;52.254;9.618;2022-07-23T14:59:26;26.00;78.10
15355;DHT22;7777;52.254;9.618;2022-07-23T15:01:53;26.00;78.70
15355;DHT22;7777;52.254;9.618;2022-07-23T15:04:19;25.90;78.10
15355;DHT22;7777;52.254;9.618;2022-07-23T15:06:45;25.90;77.40
15355;DHT22;7777;52.254;9.618;2022-07-23T15:09:11;25.90;78.10
15355;DHT22;7777;52.254;9.618;2022-07-23T15:11:36;25.80;77.60
15355;DHT22;7777;52.254;9.618;2022-07-23T15:14:04;25.80;76.70
15355;DHT22;7777;52.254;9.618;2022-07-23T15:16:30;25.80;78.50
15355;DHT22;7777;52.254;9.618;2022-07-23T15:18:56;25.80;78.30
15355;DHT22;7777;52.254;9.618;2022-07-23T15:21:22;25.70;77.40
15355;DHT22;7777;52.254;9.618;2022-07-23T15:23:48;25.70;78.10
15355;DHT22;7777;52.254;9.618;2022-07-23T15:26:14;25.70;77.30
15355;DHT22;7777;52.254;9.618;2022-07-23T15:28:41;25.70;77.20
15355;DHT22;7777;52.254;9.618;2022-07-23T15:31:07;25.60;75.40
15355;DHT22;7777;52.254;9.618;2022-07-23T15:33:33;25.50;76.10
15355;DHT22;7777;52.254;9.618;2022-07-23T15:36:00;25.50;76.20
15355;DHT22;7777;52.254;9.618;2022-07-23T15:38:26;25.50;76.10
15355;DHT22;7777;52.254;9.618;2022-07-23T15:40:54;25.40;77.00
15355;DHT22;7777;52.254;9.618;2022-07-23T15:43:21;25.40;77.30
15355;DHT22;7777;52.254;9.618;2022-07-23T15:45:48;25.40;77.00
15355;DHT22;7777;52.254;9.618;2022-07-23T15:48:14;25.30;76.60
15355;DHT22;7777;52.254;9.618;2022-07-23T15:50:41;25.30;76.70
15355;DHT22;7777;52.254;9.618;2022-07-23T15:53:06;25.30;77.10
15355;DHT22;7777;52.254;9.618;2022-07-23T15:55:32;25.20;76.70
15355;DHT22;7777;52.254;9.618;2022-07-23T15:57:58;25.20;76.70
15355;DHT22;7777;52.254;9.618;2022-07-23T16:00:24;25.10;76.10
15355;DHT22;7777;52.254;9.618;2022-07-23T16:02:50;25.10;76.20
15355;DHT22;7777;52.254;9.618;2022-07-23T16:05:16;25.00;76.40
15355;DHT22;7777;52.254;9.618;2022-07-23T16:08:02;24.90;76.40
15355;DHT22;7777;52.254;9.618;2022-07-23T16:10:29;24.90;76.80
15355;DHT22;7777;52.254;9.618;2022-07-23T16:12:54;24.90;76.90
15355;DHT22;7777;52.254;9.618;2022-07-23T16:15:28;24.80;76.40
15355;DHT22;7777;52.254;9.618;2022-07-23T16:17:58;24.80;76.30
15355;DHT22;7777;52.254;9.618;2022-07-23T16:20:27;24.70;76.40
15355;DHT22;7777;52.254;9.618;2022-07-23T16:22:53;24.70;75.70
15355;DHT22;7777;52.254;9.618;2022-07-23T16:25:19;24.70;76.10
15355;DHT22;7777;52.254;9.618;2022-07-23T16:27:45;24.70;76.50